Ballynahinch, United Kingdom
Current Conditions -  °F | °C
As of 10:20 AM on Saturday 22 Nov 2014 (Local Time) from EGAC Reporting Station
Scattered Clouds Scattered Clouds  
Wind Chill: 52°   Ceiling: Unl
Heat Index: 52°   Visibility: 6mi
Dew Point: 48°   Wind: 9mph
Humidity: 88%   Direction: 230°SW
Pressure: 29.74"   Gusts: NA
Location:  54.4°N, 5.88°W
Report Text: EGAC 221020Z 23008KT 9999 FEW011 SCT024 11/09 Q1007
Loading
Personal Weather Stations






























Interactive Weather Map New forecast layout! Learn more

10-Day Weather Forecast

Advertisements
Track Severe Weather on mobile